createdAt,value
2017-08-20T00:00:01.072Z,0
2017-08-20T00:01:02.896Z,0
2017-08-20T00:02:04.718Z,0
2017-08-20T00:03:06.606Z,0
2017-08-20T00:04:08.492Z,0
2017-08-20T00:05:10.375Z,0
2017-08-20T00:06:24.530Z,0
2017-08-20T00:07:26.424Z,0
2017-08-20T00:08:28.308Z,0
2017-08-20T00:09:30.198Z,0
2017-08-20T00:10:32.018Z,0
2017-08-20T00:11:33.843Z,0
2017-08-20T00:12:35.730Z,0
2017-08-20T00:13:37.616Z,0
2017-08-20T00:14:39.507Z,0
2017-08-20T00:15:53.673Z,0
2017-08-20T00:16:55.558Z,0
2017-08-20T00:17:57.447Z,0
2017-08-20T00:18:59.331Z,0
2017-08-20T00:20:01.155Z,0
2017-08-20T00:21:02.979Z,0
2017-08-20T00:22:04.863Z,0
2017-08-20T00:23:06.710Z,0
2017-08-20T00:24:08.530Z,0
2017-08-20T00:25:22.734Z,0
2017-08-20T00:26:24.616Z,0
2017-08-20T00:27:26.503Z,0
2017-08-20T00:28:28.390Z,0
2017-08-20T00:29:30.211Z,0
2017-08-20T00:30:32.036Z,0
2017-08-20T00:31:33.924Z,0
2017-08-20T00:32:35.806Z,0
2017-08-20T00:33:37.685Z,0
2017-08-20T00:34:51.852Z,0
2017-08-20T00:35:53.745Z,0
2017-08-20T00:36:55.632Z,0
2017-08-20T00:37:57.510Z,0
2017-08-20T00:38:59.334Z,0
2017-08-20T00:40:01.156Z,0
2017-08-20T00:41:03.038Z,0
2017-08-20T00:42:04.920Z,0
2017-08-20T00:43:06.804Z,0
2017-08-20T00:44:20.971Z,0
2017-08-20T00:45:22.852Z,0
2017-08-20T00:46:24.738Z,0
2017-08-20T00:47:26.621Z,0
2017-08-20T00:48:28.443Z,0
2017-08-20T00:49:30.264Z,0
2017-08-20T00:50:32.148Z,0
2017-08-20T00:51:34.031Z,0
2017-08-20T00:52:35.910Z,0
2017-08-20T00:53:50.077Z,0
2017-08-20T00:54:51.957Z,0
2017-08-20T00:55:53.845Z,0
2017-08-20T00:56:55.727Z,0
2017-08-20T00:57:57.559Z,0
2017-08-20T00:58:59.374Z,0
2017-08-20T01:00:01.258Z,0
2017-08-20T01:01:03.138Z,0
2017-08-20T01:02:05.021Z,0
2017-08-20T01:03:19.187Z,0
2017-08-20T01:04:21.079Z,0
2017-08-20T01:05:22.962Z,0
2017-08-20T01:06:24.844Z,0
2017-08-20T01:07:26.668Z,0
2017-08-20T01:08:28.507Z,0
2017-08-20T01:09:30.383Z,0
2017-08-20T01:10:32.263Z,0
2017-08-20T01:11:34.145Z,0
2017-08-20T01:12:48.299Z,0
2017-08-20T01:13:50.192Z,0
2017-08-20T01:14:52.074Z,0
2017-08-20T01:15:53.957Z,0
2017-08-20T01:16:55.778Z,0
2017-08-20T01:17:57.612Z,0
2017-08-20T01:18:59.493Z,0
2017-08-20T01:20:01.372Z,0
2017-08-20T01:21:03.215Z,0
2017-08-20T01:22:17.371Z,0
2017-08-20T01:23:19.254Z,0
2017-08-20T01:24:21.139Z,0
2017-08-20T01:25:23.023Z,0
2017-08-20T01:26:24.858Z,0
2017-08-20T01:27:26.680Z,0
2017-08-20T01:28:28.560Z,0
2017-08-20T01:29:30.442Z,0
2017-08-20T01:30:32.324Z,0
2017-08-20T01:31:46.488Z,0
2017-08-20T01:32:48.378Z,0
2017-08-20T01:33:50.269Z,0
2017-08-20T01:34:52.147Z,0
2017-08-20T01:35:53.969Z,0
2017-08-20T01:36:56.768Z,0
2017-08-20T01:37:58.648Z,0
2017-08-20T01:39:00.539Z,0
2017-08-20T01:40:02.418Z,0
2017-08-20T01:41:16.584Z,0
2017-08-20T01:42:18.460Z,0
2017-08-20T01:43:20.338Z,0
2017-08-20T01:44:22.216Z,0
2017-08-20T01:45:24.037Z,0
2017-08-20T01:46:25.867Z,0
2017-08-20T01:47:27.746Z,0
2017-08-20T01:48:29.636Z,0
2017-08-20T01:49:31.527Z,0
2017-08-20T01:50:45.680Z,0
2017-08-20T01:51:47.569Z,0
2017-08-20T01:52:49.445Z,0
2017-08-20T01:53:51.341Z,0
2017-08-20T01:54:53.155Z,0
2017-08-20T01:55:54.991Z,0
2017-08-20T01:56:56.869Z,0
2017-08-20T01:57:58.747Z,0
2017-08-20T01:59:00.632Z,0
2017-08-20T02:00:14.795Z,0
2017-08-20T02:01:16.684Z,0
2017-08-20T02:02:18.563Z,0
2017-08-20T02:03:20.453Z,0
2017-08-20T02:04:22.274Z,0
2017-08-20T02:05:24.106Z,0
2017-08-20T02:06:25.987Z,0
2017-08-20T02:07:27.864Z,0
2017-08-20T02:08:29.752Z,0
2017-08-20T02:09:43.952Z,0
2017-08-20T02:10:45.842Z,0
2017-08-20T02:11:47.720Z,0
2017-08-20T02:12:49.596Z,0
2017-08-20T02:13:51.425Z,0
2017-08-20T02:14:53.246Z,0
2017-08-20T02:15:55.136Z,0
2017-08-20T02:16:57.015Z,0
2017-08-20T02:17:58.896Z,0
2017-08-20T02:19:13.062Z,0
2017-08-20T02:20:14.939Z,0
2017-08-20T02:21:16.829Z,0
2017-08-20T02:22:18.716Z,0
2017-08-20T02:23:20.539Z,0
2017-08-20T02:24:22.372Z,0
2017-08-20T02:25:24.248Z,0
2017-08-20T02:26:26.137Z,0
2017-08-20T02:27:28.026Z,0
2017-08-20T02:28:42.178Z,0
2017-08-20T02:29:44.058Z,0
2017-08-20T02:30:45.935Z,0
2017-08-20T02:31:47.824Z,0
2017-08-20T02:32:49.643Z,0
2017-08-20T02:33:51.473Z,0
2017-08-20T02:34:53.318Z,0
2017-08-20T02:35:55.148Z,0
2017-08-20T02:36:56.987Z,0
2017-08-20T02:38:11.138Z,0
2017-08-20T02:39:13.026Z,0
2017-08-20T02:40:14.904Z,0
2017-08-20T02:41:16.793Z,0
2017-08-20T02:42:18.614Z,0
2017-08-20T02:43:20.435Z,0
2017-08-20T02:44:22.327Z,0
2017-08-20T02:45:24.206Z,0
2017-08-20T02:46:26.095Z,0
2017-08-20T02:47:40.248Z,0
2017-08-20T02:48:42.126Z,0
2017-08-20T02:49:44.004Z,0
2017-08-20T02:50:45.895Z,0
2017-08-20T02:51:47.714Z,0
2017-08-20T02:52:49.534Z,0
2017-08-20T02:53:51.417Z,0
2017-08-20T02:54:53.306Z,0
2017-08-20T02:55:55.196Z,0
2017-08-20T02:57:09.362Z,0
2017-08-20T02:58:11.241Z,0
2017-08-20T02:59:13.121Z,0
2017-08-20T03:00:15.004Z,0
2017-08-20T03:01:16.820Z,0
2017-08-20T03:02:18.639Z,0
2017-08-20T03:03:20.531Z,0
2017-08-20T03:04:22.409Z,0
2017-08-20T03:05:24.286Z,0
2017-08-20T03:06:38.466Z,0
2017-08-20T03:07:40.364Z,0
2017-08-20T03:08:42.240Z,0
2017-08-20T03:09:44.119Z,0
2017-08-20T03:10:45.939Z,0
2017-08-20T03:11:47.757Z,0
2017-08-20T03:12:49.638Z,0
2017-08-20T03:13:51.514Z,0
2017-08-20T03:14:53.391Z,0
2017-08-20T03:16:07.544Z,0
2017-08-20T03:17:09.432Z,0
2017-08-20T03:18:11.312Z,0
2017-08-20T03:19:13.201Z,0
2017-08-20T03:20:15.033Z,0
2017-08-20T03:21:16.856Z,0
2017-08-20T03:22:18.735Z,0
2017-08-20T03:23:20.613Z,0
2017-08-20T03:24:22.492Z,0
2017-08-20T03:25:36.655Z,0
2017-08-20T03:26:38.544Z,0
2017-08-20T03:27:40.428Z,0
2017-08-20T03:28:42.299Z,0
2017-08-20T03:29:44.118Z,0
2017-08-20T03:30:45.940Z,0
2017-08-20T03:31:47.818Z,0
2017-08-20T03:32:49.708Z,0
2017-08-20T03:33:51.584Z,0
2017-08-20T03:35:05.748Z,0
2017-08-20T03:36:07.629Z,0
2017-08-20T03:37:09.520Z,0
2017-08-20T03:38:11.400Z,0
2017-08-20T03:39:13.220Z,0
2017-08-20T03:40:15.051Z,0
2017-08-20T03:41:16.931Z,0
2017-08-20T03:42:18.811Z,0
2017-08-20T03:43:20.690Z,0
2017-08-20T03:44:34.858Z,0
2017-08-20T03:45:36.735Z,0
2017-08-20T03:46:38.625Z,0
2017-08-20T03:47:40.513Z,0
2017-08-20T03:48:42.344Z,0
2017-08-20T03:49:44.175Z,0
2017-08-20T03:50:46.058Z,0
2017-08-20T03:51:47.949Z,0
2017-08-20T03:52:49.826Z,0
2017-08-20T03:54:04.012Z,0
2017-08-20T03:55:05.873Z,0
2017-08-20T03:56:07.752Z,0
2017-08-20T03:57:09.644Z,5
2017-08-20T03:58:11.464Z,5
2017-08-20T03:59:13.287Z,5
2017-08-20T04:00:15.170Z,5
2017-08-20T04:01:17.061Z,5
2017-08-20T04:02:18.950Z,5
2017-08-20T04:03:33.104Z,10
2017-08-20T04:04:34.986Z,10
2017-08-20T04:05:36.868Z,10
2017-08-20T04:06:38.771Z,10
2017-08-20T04:07:40.583Z,15
2017-08-20T04:08:42.418Z,15
2017-08-20T04:09:44.311Z,15
2017-08-20T04:10:46.194Z,15
2017-08-20T04:11:48.073Z,20
2017-08-20T04:13:02.241Z,20
2017-08-20T04:14:04.120Z,20
2017-08-20T04:15:06.011Z,25
2017-08-20T04:16:07.894Z,25
2017-08-20T04:17:09.720Z,25
2017-08-20T04:18:11.544Z,25
2017-08-20T04:19:13.439Z,30
2017-08-20T04:20:15.331Z,30
2017-08-20T04:21:17.212Z,30
2017-08-20T04:22:31.372Z,30
2017-08-20T04:23:33.253Z,30
2017-08-20T04:24:35.138Z,35
2017-08-20T04:25:37.017Z,35
2017-08-20T04:26:38.843Z,35
2017-08-20T04:27:40.667Z,35
2017-08-20T04:28:42.562Z,40
2017-08-20T04:29:44.459Z,40
2017-08-20T04:30:46.339Z,40
2017-08-20T04:32:00.506Z,40
2017-08-20T04:33:02.402Z,40
2017-08-20T04:34:04.295Z,45
2017-08-20T04:35:06.178Z,45
2017-08-20T04:36:08.012Z,45
2017-08-20T04:37:09.835Z,45
2017-08-20T04:38:11.721Z,45
2017-08-20T04:39:13.614Z,50
2017-08-20T04:40:15.498Z,50
2017-08-20T04:41:29.655Z,50
2017-08-20T04:42:31.544Z,50
2017-08-20T04:43:33.421Z,50
2017-08-20T04:44:35.303Z,55
2017-08-20T04:45:37.129Z,55
2017-08-20T04:46:38.964Z,60
2017-08-20T04:47:40.847Z,60
2017-08-20T04:48:42.730Z,60
2017-08-20T04:49:44.621Z,65
2017-08-20T04:50:58.787Z,65
2017-08-20T04:52:00.682Z,65
2017-08-20T04:53:02.559Z,70
2017-08-20T04:54:04.456Z,70
2017-08-20T04:55:06.282Z,70
2017-08-20T04:56:08.116Z,70
2017-08-20T04:57:10.002Z,70
2017-08-20T04:58:11.883Z,70
2017-08-20T04:59:13.773Z,70
2017-08-20T05:00:27.941Z,75
2017-08-20T05:01:29.836Z,75
2017-08-20T05:02:31.732Z,75
2017-08-20T05:03:33.612Z,75
2017-08-20T05:04:35.441Z,80
2017-08-20T05:05:37.260Z,80
2017-08-20T05:06:39.146Z,80
2017-08-20T05:07:41.039Z,80
2017-08-20T05:08:42.921Z,85
2017-08-20T05:09:57.089Z,85
2017-08-20T05:10:58.984Z,85
2017-08-20T05:12:00.877Z,90
2017-08-20T05:13:02.761Z,90
2017-08-20T05:14:04.597Z,90
2017-08-20T05:15:06.421Z,95
2017-08-20T05:16:08.304Z,95
2017-08-20T05:17:10.198Z,95
2017-08-20T05:18:12.082Z,100
2017-08-20T05:19:26.252Z,100
2017-08-20T05:20:28.137Z,100
2017-08-20T05:21:30.029Z,100
2017-08-20T05:22:31.928Z,100
2017-08-20T05:23:33.752Z,105
2017-08-20T05:24:35.587Z,105
2017-08-20T05:25:37.483Z,105
2017-08-20T05:26:39.368Z,105
2017-08-20T05:27:41.261Z,105
2017-08-20T05:28:55.429Z,105
2017-08-20T05:29:57.313Z,105
2017-08-20T05:30:59.206Z,105
2017-08-20T05:32:01.091Z,105
2017-08-20T05:33:02.916Z,105
2017-08-20T05:34:04.753Z,100
2017-08-20T05:35:06.650Z,100
2017-08-20T05:36:08.535Z,100
2017-08-20T05:37:10.431Z,100
2017-08-20T05:38:24.588Z,100
2017-08-20T05:39:26.483Z,100
2017-08-20T05:40:28.377Z,95
2017-08-20T05:41:30.265Z,95
2017-08-20T05:42:32.090Z,95
2017-08-20T05:43:33.915Z,90
2017-08-20T05:44:35.798Z,95
2017-08-20T05:45:37.683Z,85
2017-08-20T05:46:39.563Z,85
2017-08-20T05:47:53.723Z,85
2017-08-20T05:48:55.606Z,85
2017-08-20T05:49:57.494Z,90
2017-08-20T05:50:59.374Z,90
2017-08-20T05:52:01.200Z,95
2017-08-20T05:53:03.027Z,100
2017-08-20T05:54:04.914Z,95
2017-08-20T05:55:06.797Z,100
2017-08-20T05:56:08.695Z,100
2017-08-20T05:57:22.903Z,105
2017-08-20T05:58:24.788Z,110
2017-08-20T05:59:26.673Z,115
2017-08-20T06:00:28.555Z,115
2017-08-20T06:01:30.398Z,115
2017-08-20T06:02:32.226Z,115
2017-08-20T06:03:34.109Z,115
2017-08-20T06:04:35.994Z,110
2017-08-20T06:05:37.879Z,110
2017-08-20T06:06:52.037Z,105
2017-08-20T06:07:53.923Z,100
2017-08-20T06:08:55.809Z,100
2017-08-20T06:09:57.693Z,100
2017-08-20T06:10:59.521Z,100
2017-08-20T06:12:01.348Z,100
2017-08-20T06:13:03.239Z,100
2017-08-20T06:14:05.123Z,100
2017-08-20T06:15:07.008Z,100
2017-08-20T06:16:21.169Z,105
2017-08-20T06:17:23.057Z,105
2017-08-20T06:18:24.944Z,110
2017-08-20T06:19:26.825Z,110
2017-08-20T06:20:28.654Z,115
2017-08-20T06:21:30.482Z,120
2017-08-20T06:22:32.364Z,125
2017-08-20T06:23:34.259Z,130
2017-08-20T06:24:36.156Z,135
2017-08-20T06:25:50.331Z,135
2017-08-20T06:26:52.219Z,140
2017-08-20T06:27:54.104Z,140
2017-08-20T06:28:55.989Z,135
2017-08-20T06:29:57.818Z,135
2017-08-20T06:30:59.650Z,135
2017-08-20T06:32:01.537Z,140
2017-08-20T06:33:03.424Z,140
2017-08-20T06:34:05.307Z,140
2017-08-20T06:35:19.469Z,140
2017-08-20T06:36:21.355Z,135
2017-08-20T06:37:23.242Z,135
2017-08-20T06:38:25.123Z,135
2017-08-20T06:39:26.952Z,135
2017-08-20T06:40:28.777Z,135
2017-08-20T06:41:30.698Z,135
2017-08-20T06:42:32.595Z,135
2017-08-20T06:43:34.488Z,135
2017-08-20T06:44:48.653Z,135
2017-08-20T06:45:50.539Z,130
2017-08-20T06:46:52.425Z,130
2017-08-20T06:47:54.308Z,125
2017-08-20T06:48:56.148Z,125
2017-08-20T06:49:57.980Z,125
2017-08-20T06:50:59.863Z,125
2017-08-20T06:52:01.759Z,125
2017-08-20T06:53:03.654Z,130
2017-08-20T06:54:17.826Z,135
2017-08-20T06:55:19.711Z,135
2017-08-20T06:56:21.597Z,135
2017-08-20T06:57:23.481Z,135
2017-08-20T06:58:25.333Z,135
2017-08-20T06:59:27.159Z,135
2017-08-20T07:00:29.043Z,140
2017-08-20T07:01:30.940Z,135
2017-08-20T07:02:32.825Z,140
2017-08-20T07:03:46.996Z,140
2017-08-20T07:04:48.883Z,140
2017-08-20T07:05:50.770Z,140
2017-08-20T07:06:52.653Z,140
2017-08-20T07:07:54.491Z,140
2017-08-20T07:08:56.317Z,135
2017-08-20T07:09:58.204Z,135
2017-08-20T07:11:00.093Z,130
2017-08-20T07:12:01.976Z,130
2017-08-20T07:13:16.151Z,130
2017-08-20T07:14:18.036Z,125
2017-08-20T07:15:19.930Z,125
2017-08-20T07:16:21.814Z,125
2017-08-20T07:17:23.652Z,120
2017-08-20T07:18:25.480Z,120
2017-08-20T07:19:27.365Z,120
2017-08-20T07:20:29.259Z,120
2017-08-20T07:21:31.155Z,120
2017-08-20T07:22:45.315Z,120
2017-08-20T07:23:47.200Z,120
2017-08-20T07:24:49.095Z,125
2017-08-20T07:25:50.978Z,125
2017-08-20T07:26:52.815Z,125
2017-08-20T07:27:54.654Z,125
2017-08-20T07:28:56.544Z,130
2017-08-20T07:29:58.496Z,130
2017-08-20T07:31:00.355Z,135
2017-08-20T07:32:14.530Z,130
2017-08-20T07:33:16.417Z,135
2017-08-20T07:34:18.306Z,135
2017-08-20T07:35:20.190Z,135
2017-08-20T07:36:22.352Z,135
2017-08-20T07:37:24.173Z,140
2017-08-20T07:38:26.061Z,140
2017-08-20T07:39:27.943Z,140
2017-08-20T07:40:29.830Z,135
2017-08-20T07:41:43.991Z,135
2017-08-20T07:42:45.878Z,135
2017-08-20T07:43:47.761Z,135
2017-08-20T07:44:49.658Z,135
2017-08-20T07:45:51.488Z,135
2017-08-20T07:46:53.316Z,130
2017-08-20T07:47:55.204Z,135
2017-08-20T07:48:57.098Z,135
2017-08-20T07:49:58.981Z,135
2017-08-20T07:51:13.147Z,140
2017-08-20T07:52:15.033Z,145
2017-08-20T07:53:16.914Z,150
2017-08-20T07:54:18.822Z,150
2017-08-20T07:55:20.652Z,145
2017-08-20T07:56:22.479Z,145
2017-08-20T07:57:24.381Z,145
2017-08-20T07:58:26.267Z,145
2017-08-20T07:59:28.151Z,145
2017-08-20T08:00:42.310Z,145
2017-08-20T08:01:44.197Z,145
2017-08-20T08:02:46.087Z,145
2017-08-20T08:03:47.970Z,150
2017-08-20T08:04:49.809Z,150
2017-08-20T08:05:51.959Z,155
2017-08-20T08:06:53.784Z,155
2017-08-20T08:07:55.609Z,155
2017-08-20T08:08:57.532Z,160
2017-08-20T08:10:11.674Z,165
2017-08-20T08:11:13.563Z,170
2017-08-20T08:12:15.452Z,170
2017-08-20T08:13:17.342Z,175
2017-08-20T08:14:19.182Z,175
2017-08-20T08:15:21.017Z,175
2017-08-20T08:16:22.906Z,175
2017-08-20T08:17:24.831Z,180
2017-08-20T08:18:26.708Z,180
2017-08-20T08:19:40.918Z,180
2017-08-20T08:20:42.808Z,175
2017-08-20T08:21:44.701Z,180
2017-08-20T08:22:46.602Z,200
2017-08-20T08:23:48.425Z,210
2017-08-20T08:24:50.259Z,245
2017-08-20T08:25:52.146Z,260
2017-08-20T08:26:54.060Z,255
2017-08-20T08:27:55.942Z,245
2017-08-20T08:29:10.112Z,215
2017-08-20T08:30:12.018Z,205
2017-08-20T08:31:13.909Z,210
2017-08-20T08:32:15.802Z,245
2017-08-20T08:33:17.642Z,265
2017-08-20T08:34:19.479Z,285
2017-08-20T08:35:21.372Z,290
2017-08-20T08:36:23.264Z,285
2017-08-20T08:37:25.164Z,285
2017-08-20T08:38:39.319Z,275
2017-08-20T08:39:41.212Z,275
2017-08-20T08:40:43.102Z,260
2017-08-20T08:41:44.989Z,245
2017-08-20T08:42:46.826Z,240
2017-08-20T08:43:48.654Z,225
2017-08-20T08:44:50.549Z,200
2017-08-20T08:45:52.451Z,215
2017-08-20T08:46:54.345Z,240
2017-08-20T08:48:08.508Z,265
2017-08-20T08:49:10.410Z,265
2017-08-20T08:50:12.307Z,270
2017-08-20T08:51:14.208Z,265
2017-08-20T08:52:16.046Z,260
2017-08-20T08:53:17.868Z,260
2017-08-20T08:54:19.767Z,255
2017-08-20T08:55:21.667Z,245
2017-08-20T08:56:23.549Z,230
2017-08-20T08:57:37.725Z,215
2017-08-20T08:58:39.610Z,200
2017-08-20T08:59:41.505Z,185
2017-08-20T09:00:43.389Z,175
2017-08-20T09:01:45.228Z,170
2017-08-20T09:02:47.066Z,165
2017-08-20T09:03:48.951Z,160
2017-08-20T09:04:50.849Z,160
2017-08-20T09:05:52.744Z,175
2017-08-20T09:07:06.901Z,200
2017-08-20T09:08:08.799Z,220
2017-08-20T09:09:10.679Z,220
2017-08-20T09:10:12.576Z,220
2017-08-20T09:11:14.406Z,220
2017-08-20T09:12:16.232Z,220
2017-08-20T09:13:18.119Z,215
2017-08-20T09:14:20.024Z,210
2017-08-20T09:15:21.907Z,200
2017-08-20T09:16:36.102Z,190
2017-08-20T09:17:37.983Z,190
2017-08-20T09:18:39.875Z,195
2017-08-20T09:19:41.767Z,190
2017-08-20T09:20:43.597Z,185
2017-08-20T09:21:45.427Z,190
2017-08-20T09:22:47.326Z,205
2017-08-20T09:23:49.216Z,200
2017-08-20T09:24:51.096Z,190
2017-08-20T09:26:05.276Z,180
2017-08-20T09:27:07.162Z,175
2017-08-20T09:28:09.050Z,175
2017-08-20T09:29:10.943Z,190
2017-08-20T09:30:12.775Z,190
2017-08-20T09:31:14.614Z,195
2017-08-20T09:32:16.499Z,200
2017-08-20T09:33:18.396Z,205
2017-08-20T09:34:20.284Z,205
2017-08-20T09:35:34.458Z,195
2017-08-20T09:36:36.351Z,200
2017-08-20T09:37:38.241Z,195
2017-08-20T09:38:40.143Z,195
2017-08-20T09:39:41.971Z,190
2017-08-20T09:40:43.814Z,210
2017-08-20T09:41:45.704Z,210
2017-08-20T09:42:47.599Z,210
2017-08-20T09:43:49.499Z,205
2017-08-20T09:45:03.667Z,210
2017-08-20T09:46:05.560Z,200
2017-08-20T09:47:07.450Z,200
2017-08-20T09:48:09.333Z,205
2017-08-20T09:49:11.174Z,190
2017-08-20T09:50:13.017Z,185
2017-08-20T09:51:14.904Z,180
2017-08-20T09:52:16.799Z,175
2017-08-20T09:53:18.689Z,175
2017-08-20T09:54:32.905Z,175
2017-08-20T09:55:34.794Z,175
2017-08-20T09:56:36.688Z,165
2017-08-20T09:57:38.583Z,165
2017-08-20T09:58:40.414Z,165
2017-08-20T09:59:42.244Z,175
2017-08-20T10:00:44.139Z,170
2017-08-20T10:01:46.039Z,170
2017-08-20T10:02:47.925Z,180
2017-08-20T10:04:02.090Z,195
2017-08-20T10:05:03.987Z,205
2017-08-20T10:06:05.874Z,210
2017-08-20T10:07:07.765Z,195
2017-08-20T10:08:09.598Z,200
2017-08-20T10:09:11.428Z,200
2017-08-20T10:10:13.337Z,210
2017-08-20T10:11:15.221Z,205
2017-08-20T10:12:17.116Z,205
2017-08-20T10:13:31.280Z,200
2017-08-20T10:14:33.165Z,200
2017-08-20T10:15:35.052Z,190
2017-08-20T10:16:36.957Z,180
2017-08-20T10:17:38.777Z,160
2017-08-20T10:18:40.610Z,160
2017-08-20T10:19:42.495Z,160
2017-08-20T10:20:44.391Z,155
2017-08-20T10:21:46.277Z,155
2017-08-20T10:23:00.440Z,150
2017-08-20T10:24:02.327Z,150
2017-08-20T10:25:04.223Z,150
2017-08-20T10:26:06.122Z,155
2017-08-20T10:27:07.951Z,155
2017-08-20T10:28:09.779Z,155
2017-08-20T10:29:11.667Z,160
2017-08-20T10:30:13.561Z,165
2017-08-20T10:31:15.459Z,170
2017-08-20T10:32:29.640Z,180
2017-08-20T10:33:31.529Z,185
2017-08-20T10:34:33.428Z,195
2017-08-20T10:35:35.313Z,205
2017-08-20T10:36:37.148Z,205
2017-08-20T10:37:38.984Z,210
2017-08-20T10:38:40.878Z,220
2017-08-20T10:39:42.769Z,225
2017-08-20T10:40:44.653Z,240
2017-08-20T10:41:58.816Z,250
2017-08-20T10:43:00.701Z,255
2017-08-20T10:44:02.601Z,250
2017-08-20T10:45:04.482Z,240
2017-08-20T10:46:06.317Z,235
2017-08-20T10:47:08.158Z,240
2017-08-20T10:48:10.045Z,250
2017-08-20T10:49:11.938Z,260
2017-08-20T10:50:13.832Z,270
2017-08-20T10:51:27.994Z,285
2017-08-20T10:52:29.893Z,290
2017-08-20T10:53:31.775Z,295
2017-08-20T10:54:33.663Z,305
2017-08-20T10:55:35.502Z,315
2017-08-20T10:56:37.334Z,310
2017-08-20T10:57:39.220Z,305
2017-08-20T10:58:41.122Z,295
2017-08-20T10:59:43.010Z,270
2017-08-20T11:00:57.180Z,265
2017-08-20T11:01:59.069Z,255
2017-08-20T11:03:00.971Z,245
2017-08-20T11:04:02.869Z,235
2017-08-20T11:05:04.702Z,215
2017-08-20T11:06:06.536Z,195
2017-08-20T11:07:08.434Z,185
2017-08-20T11:08:10.324Z,185
2017-08-20T11:09:12.218Z,185
2017-08-20T11:10:26.386Z,200
2017-08-20T11:11:28.279Z,210
2017-08-20T11:12:30.157Z,235
2017-08-20T11:13:32.047Z,245
2017-08-20T11:14:33.922Z,250
2017-08-20T11:15:35.793Z,260
2017-08-20T11:16:37.689Z,260
2017-08-20T11:17:39.590Z,260
2017-08-20T11:18:41.482Z,265
2017-08-20T11:19:55.651Z,250
2017-08-20T11:20:57.537Z,230
2017-08-20T11:21:59.429Z,205
2017-08-20T11:23:01.330Z,195
2017-08-20T11:24:03.162Z,190
2017-08-20T11:25:04.993Z,185
2017-08-20T11:26:06.875Z,185
2017-08-20T11:27:08.772Z,180
2017-08-20T11:28:10.676Z,175
2017-08-20T11:29:24.868Z,175
2017-08-20T11:30:26.750Z,175
2017-08-20T11:31:28.643Z,170
2017-08-20T11:32:30.535Z,175
2017-08-20T11:33:32.372Z,175
2017-08-20T11:34:34.211Z,175
2017-08-20T11:35:36.104Z,180
2017-08-20T11:36:37.991Z,170
2017-08-20T11:37:39.882Z,165
2017-08-20T11:38:54.057Z,175
2017-08-20T11:39:55.943Z,170
2017-08-20T11:40:57.835Z,170
2017-08-20T11:41:59.720Z,175
2017-08-20T11:43:01.544Z,185
2017-08-20T11:44:03.381Z,190
2017-08-20T11:45:05.268Z,195
2017-08-20T11:46:07.164Z,200
2017-08-20T11:47:09.055Z,205
2017-08-20T11:48:23.223Z,210
2017-08-20T11:49:25.107Z,215
2017-08-20T11:50:27.003Z,205
2017-08-20T11:51:28.889Z,200
2017-08-20T11:52:30.719Z,195
2017-08-20T11:53:32.558Z,200
2017-08-20T11:54:34.449Z,200
2017-08-20T11:55:36.343Z,215
2017-08-20T11:56:38.293Z,220
2017-08-20T11:57:52.449Z,225
2017-08-20T11:58:54.342Z,235
2017-08-20T11:59:56.234Z,240
2017-08-20T12:00:58.128Z,240
2017-08-20T12:01:59.966Z,240
2017-08-20T12:03:01.799Z,245
2017-08-20T12:04:03.707Z,245
2017-08-20T12:05:05.595Z,250
2017-08-20T12:06:07.488Z,260
2017-08-20T12:07:21.655Z,285
2017-08-20T12:08:23.547Z,300
2017-08-20T12:09:25.443Z,295
2017-08-20T12:10:27.341Z,285
2017-08-20T12:11:29.180Z,275
2017-08-20T12:12:31.016Z,270
2017-08-20T12:13:32.912Z,260
2017-08-20T12:14:34.808Z,250
2017-08-20T12:15:36.694Z,235
2017-08-20T12:16:50.862Z,220
2017-08-20T12:17:52.757Z,215
2017-08-20T12:18:54.634Z,210
2017-08-20T12:19:56.529Z,210
2017-08-20T12:20:58.360Z,205
2017-08-20T12:22:00.189Z,195
2017-08-20T12:23:02.081Z,195
2017-08-20T12:24:03.968Z,200
2017-08-20T12:25:05.855Z,205
2017-08-20T12:26:20.032Z,200
2017-08-20T12:27:21.930Z,200
2017-08-20T12:28:23.829Z,205
2017-08-20T12:29:25.715Z,210
2017-08-20T12:30:27.541Z,215
2017-08-20T12:31:29.371Z,225
2017-08-20T12:32:31.284Z,235
2017-08-20T12:33:33.174Z,240
2017-08-20T12:34:35.074Z,260
2017-08-20T12:35:49.235Z,250
2017-08-20T12:36:51.135Z,245
2017-08-20T12:37:53.017Z,240
2017-08-20T12:38:54.908Z,235
2017-08-20T12:39:56.748Z,235
2017-08-20T12:40:58.585Z,235
2017-08-20T12:42:00.475Z,220
2017-08-20T12:43:02.360Z,220
2017-08-20T12:44:04.264Z,220
2017-08-20T12:45:18.430Z,215
2017-08-20T12:46:20.330Z,210
2017-08-20T12:47:22.220Z,205
2017-08-20T12:48:24.108Z,200
2017-08-20T12:49:25.951Z,195
2017-08-20T12:50:27.778Z,190
2017-08-20T12:51:29.672Z,180
2017-08-20T12:52:31.562Z,180
2017-08-20T12:53:33.457Z,175
2017-08-20T12:54:47.627Z,185
2017-08-20T12:55:49.515Z,180
2017-08-20T12:56:51.407Z,180
2017-08-20T12:57:53.293Z,175
2017-08-20T12:58:55.137Z,175
2017-08-20T12:59:56.966Z,175
2017-08-20T13:00:58.864Z,175
2017-08-20T13:02:00.752Z,170
2017-08-20T13:03:02.644Z,170
2017-08-20T13:04:16.806Z,170
2017-08-20T13:05:18.699Z,170
2017-08-20T13:06:20.597Z,170
2017-08-20T13:07:22.493Z,170
2017-08-20T13:08:24.322Z,180
2017-08-20T13:09:26.158Z,185
2017-08-20T13:10:28.051Z,190
2017-08-20T13:11:29.932Z,190
2017-08-20T13:12:31.826Z,190
2017-08-20T13:13:46.045Z,190
2017-08-20T13:14:47.939Z,190
2017-08-20T13:15:49.824Z,185
2017-08-20T13:16:51.714Z,180
2017-08-20T13:17:53.547Z,175
2017-08-20T13:18:55.378Z,180
2017-08-20T13:19:57.274Z,175
2017-08-20T13:20:59.158Z,170
2017-08-20T13:22:01.073Z,170
2017-08-20T13:23:15.213Z,165
2017-08-20T13:24:17.109Z,165
2017-08-20T13:25:19.010Z,165
2017-08-20T13:26:20.896Z,165
2017-08-20T13:27:22.719Z,165
2017-08-20T13:28:24.544Z,160
2017-08-20T13:29:26.438Z,160
2017-08-20T13:30:28.329Z,160
2017-08-20T13:31:30.221Z,165
2017-08-20T13:32:44.387Z,160
2017-08-20T13:33:46.277Z,160
2017-08-20T13:34:48.175Z,155
2017-08-20T13:35:50.070Z,160
2017-08-20T13:36:51.892Z,170
2017-08-20T13:37:53.727Z,175
2017-08-20T13:38:55.622Z,180
2017-08-20T13:39:57.516Z,190
2017-08-20T13:40:59.399Z,190
2017-08-20T13:42:13.568Z,185
2017-08-20T13:43:15.460Z,180
2017-08-20T13:44:17.349Z,175
2017-08-20T13:45:19.239Z,175
2017-08-20T13:46:21.073Z,170
2017-08-20T13:47:22.907Z,165
2017-08-20T13:48:24.804Z,165
2017-08-20T13:49:26.698Z,160
2017-08-20T13:50:28.589Z,160
2017-08-20T13:51:42.749Z,160
2017-08-20T13:52:44.636Z,170
2017-08-20T13:53:46.543Z,170
2017-08-20T13:54:48.432Z,165
2017-08-20T13:55:50.265Z,165
2017-08-20T13:56:52.096Z,160
2017-08-20T13:57:53.996Z,160
2017-08-20T13:58:55.888Z,165
2017-08-20T13:59:57.778Z,165
2017-08-20T14:01:11.936Z,170
2017-08-20T14:02:13.826Z,180
2017-08-20T14:03:16.050Z,185
2017-08-20T14:04:18.280Z,180
2017-08-20T14:05:20.460Z,185
2017-08-20T14:06:22.629Z,190
2017-08-20T14:07:24.845Z,195
2017-08-20T14:08:27.127Z,205
2017-08-20T14:09:29.221Z,210
2017-08-20T14:10:43.428Z,210
2017-08-20T14:11:45.321Z,220
2017-08-20T14:12:47.212Z,230
2017-08-20T14:13:49.110Z,245
2017-08-20T14:14:50.943Z,240
2017-08-20T14:15:52.790Z,225
2017-08-20T14:16:54.682Z,220
2017-08-20T14:17:56.569Z,210
2017-08-20T14:18:58.473Z,205
2017-08-20T14:20:12.667Z,195
2017-08-20T14:21:14.542Z,190
2017-08-20T14:22:16.473Z,190
2017-08-20T14:23:18.371Z,180
2017-08-20T14:24:20.194Z,180
2017-08-20T14:25:22.043Z,175
2017-08-20T14:26:23.942Z,175
2017-08-20T14:27:25.842Z,175
2017-08-20T14:28:27.732Z,175
2017-08-20T14:29:41.900Z,180
2017-08-20T14:30:43.807Z,180
2017-08-20T14:31:45.694Z,185
2017-08-20T14:32:47.612Z,185
2017-08-20T14:33:49.482Z,185
2017-08-20T14:34:51.314Z,185
2017-08-20T14:35:53.206Z,190
2017-08-20T14:36:55.112Z,190
2017-08-20T14:37:57.011Z,190
2017-08-20T14:39:11.166Z,195
2017-08-20T14:40:12.997Z,200
2017-08-20T14:41:14.848Z,200
2017-08-20T14:42:16.736Z,205
2017-08-20T14:43:18.626Z,205
2017-08-20T14:44:20.506Z,205
2017-08-20T14:45:22.372Z,210
2017-08-20T14:46:24.685Z,220
2017-08-20T14:47:26.574Z,225
2017-08-20T14:48:40.800Z,240
2017-08-20T14:49:42.706Z,250